createdAt,value
2018-12-17T00:01:53.619Z,101466.75
2018-12-17T00:04:22.499Z,101465.39
2018-12-17T00:06:51.353Z,101455.75
2018-12-17T00:09:20.217Z,101455.34
2018-12-17T00:11:48.979Z,101458.31
2018-12-17T00:14:17.848Z,101461.25
2018-12-17T00:16:46.948Z,101459.97
2018-12-17T00:19:15.828Z,101456.59
2018-12-17T00:21:44.613Z,101458.04
2018-12-17T00:24:14.462Z,101452.67
2018-12-17T00:26:43.230Z,101453.45
2018-12-17T00:29:12.076Z,101451.56
2018-12-17T00:31:40.957Z,101452.10
2018-12-17T00:34:09.744Z,101464.14
2018-12-17T00:36:38.677Z,101466.64
2018-12-17T00:39:08.952Z,101476.63
2018-12-17T00:41:37.786Z,101477.68
2018-12-17T00:44:06.808Z,101479.44
2018-12-17T00:46:36.798Z,101470.29
2018-12-17T00:49:05.785Z,101472.45
2018-12-17T00:51:34.614Z,101481.23
2018-12-17T00:54:03.807Z,101473.06
2018-12-17T00:56:32.770Z,101480.22
2018-12-17T00:59:02.446Z,101484.20
2018-12-17T01:01:32.527Z,101486.77
2018-12-17T01:04:02.355Z,101490.23
2018-12-17T01:11:40.754Z,101488.89
2018-12-17T01:14:09.908Z,101490.23
2018-12-17T01:16:38.762Z,101493.44
2018-12-17T01:19:07.903Z,101495.57
2018-12-17T01:21:37.085Z,101498.36
2018-12-17T01:24:05.956Z,101491.75
2018-12-17T01:26:34.971Z,101496.08
2018-12-17T01:29:03.919Z,101493.38
2018-12-17T01:31:32.862Z,101497.77
2018-12-17T01:34:02.374Z,101498.61
2018-12-17T01:36:32.243Z,101497.94
2018-12-17T01:39:01.040Z,101496.85
2018-12-17T01:41:29.849Z,101498.67
2018-12-17T01:43:58.598Z,101503.06
2018-12-17T01:46:27.370Z,101506.78
2018-12-17T01:48:56.133Z,101503.81
2018-12-17T01:51:25.117Z,101498.14
2018-12-17T01:53:53.967Z,101501.65
2018-12-17T01:56:22.892Z,101508.50
2018-12-17T01:58:51.738Z,101506.81
2018-12-17T02:01:20.501Z,101515.59
2018-12-17T02:03:49.334Z,101514.06
2018-12-17T02:06:18.147Z,101513.94
2018-12-17T02:08:47.011Z,101513.59
2018-12-17T02:11:16.088Z,101519.17
2018-12-17T02:13:45.092Z,101522.27
2018-12-17T02:16:14.013Z,101526.69
2018-12-17T02:18:42.908Z,101522.20
2018-12-17T02:21:11.764Z,101515.69
2018-12-17T02:23:41.423Z,101520.45
2018-12-17T02:26:11.860Z,101526.47
2018-12-17T02:28:43.631Z,101529.63
2018-12-17T02:31:12.656Z,101532.08
2018-12-17T02:33:41.537Z,101535.41
2018-12-17T02:36:10.574Z,101530.14
2018-12-17T02:38:39.576Z,101541.05
2018-12-17T02:41:08.443Z,101538.00
2018-12-17T02:43:37.207Z,101538.37
2018-12-17T02:46:06.156Z,101544.11
2018-12-17T02:48:35.011Z,101537.25
2018-12-17T02:51:03.897Z,101528.76
2018-12-17T02:53:32.946Z,101526.73
2018-12-17T02:56:02.556Z,101527.00
2018-12-17T02:58:32.425Z,101535.71
2018-12-17T03:01:01.312Z,101539.06
2018-12-17T03:03:30.157Z,101545.88
2018-12-17T03:05:59.223Z,101543.45
2018-12-17T03:08:28.773Z,101551.38
2018-12-17T03:10:57.540Z,101549.50
2018-12-17T03:13:26.271Z,101552.44
2018-12-17T03:15:55.115Z,101553.85
2018-12-17T03:18:24.581Z,101545.58
2018-12-17T03:20:53.618Z,101558.81
2018-12-17T03:23:22.445Z,101558.81
2018-12-17T03:25:51.392Z,101564.42
2018-12-17T03:28:20.866Z,101566.30
2018-12-17T03:30:49.957Z,101565.39
2018-12-17T03:33:18.857Z,101562.19
2018-12-17T03:35:47.818Z,101568.47
2018-12-17T03:38:18.271Z,101528.95
2018-12-17T03:40:47.582Z,101567.62
2018-12-17T03:43:16.700Z,101568.53
2018-12-17T03:45:45.694Z,101578.72
2018-12-17T03:48:14.486Z,101585.24
2018-12-17T03:50:43.295Z,101585.14
2018-12-17T03:53:12.231Z,101585.65
2018-12-17T03:55:41.047Z,101583.86
2018-12-17T03:58:09.991Z,101577.59
2018-12-17T04:00:41.469Z,101578.06
2018-12-17T04:03:10.398Z,101580.73
2018-12-17T04:05:39.386Z,101582.38
2018-12-17T04:08:09.440Z,101580.59
2018-12-17T04:10:39.923Z,101588.38
2018-12-17T04:13:08.966Z,101585.74
2018-12-17T04:15:38.131Z,101592.04
2018-12-17T04:18:07.253Z,101591.19
2018-12-17T04:20:36.084Z,101592.52
2018-12-17T04:23:05.112Z,101595.89
2018-12-17T04:25:34.173Z,101601.10
2018-12-17T04:28:03.095Z,101598.47
2018-12-17T04:30:32.671Z,101604.64
2018-12-17T04:33:02.953Z,101608.12
2018-12-17T04:35:32.877Z,101607.19
2018-12-17T04:38:02.776Z,101613.86
2018-12-17T04:40:32.549Z,101613.77
2018-12-17T04:43:01.319Z,101612.60
2018-12-17T04:45:30.382Z,101618.72
2018-12-17T04:47:59.160Z,101615.23
2018-12-17T04:50:27.961Z,101614.01
2018-12-17T04:52:56.837Z,101613.42
2018-12-17T04:55:25.727Z,101618.62
2018-12-17T04:57:54.822Z,101622.92
2018-12-17T05:00:23.690Z,101623.39
2018-12-17T05:02:52.466Z,101628.13
2018-12-17T05:05:21.268Z,101635.53
2018-12-17T05:07:50.411Z,101638.08
2018-12-17T05:10:19.386Z,101645.16
2018-12-17T05:12:48.276Z,101652.19
2018-12-17T05:15:17.217Z,101661.40
2018-12-17T05:17:46.184Z,101664.51
2018-12-17T05:20:15.207Z,101666.17
2018-12-17T05:22:44.349Z,101667.42
2018-12-17T05:25:13.878Z,101664.32
2018-12-17T05:27:42.657Z,101675.52
2018-12-17T05:30:11.963Z,101679.95
2018-12-17T05:32:40.744Z,101678.50
2018-12-17T05:35:09.570Z,101690.98
2018-12-17T05:37:42.670Z,101691.02
2018-12-17T05:40:11.813Z,101695.02
2018-12-17T05:42:40.700Z,101686.69
2018-12-17T05:45:09.587Z,101684.05
2018-12-17T05:47:38.537Z,101688.53
2018-12-17T05:50:07.735Z,101697.78
2018-12-17T05:52:36.465Z,101697.31
2018-12-17T05:55:06.082Z,101694.67
2018-12-17T05:57:34.864Z,101698.13
2018-12-17T06:00:04.071Z,101697.72
2018-12-17T06:02:32.858Z,101703.34
2018-12-17T06:05:02.513Z,101702.05
2018-12-17T06:07:31.275Z,101707.34
2018-12-17T06:09:59.992Z,101708.58
2018-12-17T06:12:28.992Z,101710.80
2018-12-17T06:14:57.726Z,101705.53
2018-12-17T06:17:26.589Z,101711.13
2018-12-17T06:19:55.476Z,101717.39
2018-12-17T06:22:24.444Z,101718.15
2018-12-17T06:24:53.285Z,101722.55
2018-12-17T06:27:22.323Z,101733.05
2018-12-17T06:29:51.169Z,101735.80
2018-12-17T06:32:20.102Z,101733.58
2018-12-17T06:34:49.145Z,101733.11
2018-12-17T06:37:18.159Z,101736.19
2018-12-17T06:39:47.019Z,101744.91
2018-12-17T06:42:15.971Z,101749.63
2018-12-17T06:44:44.918Z,101754.10
2018-12-17T06:47:13.792Z,101752.37
2018-12-17T06:49:42.785Z,101749.74
2018-12-17T06:52:11.652Z,101754.63
2018-12-17T06:54:40.542Z,101759.52
2018-12-17T06:57:09.387Z,101759.13
2018-12-17T06:59:42.591Z,101755.02
2018-12-17T07:02:09.837Z,101761.22
2018-12-17T07:04:38.655Z,101763.62
2018-12-17T07:07:07.407Z,101767.13
2018-12-17T07:09:36.203Z,101762.30
2018-12-17T07:12:05.123Z,101765.17
2018-12-17T07:14:36.686Z,101773.45
2018-12-17T07:17:04.854Z,101783.88
2018-12-17T07:19:33.704Z,101788.63
2018-12-17T07:22:02.789Z,101789.89
2018-12-17T07:24:32.705Z,101791.62
2018-12-17T07:27:01.747Z,101791.12
2018-12-17T07:29:30.502Z,101789.89
2018-12-17T07:31:59.306Z,101795.66
2018-12-17T07:34:28.916Z,101796.47
2018-12-17T07:36:58.090Z,101794.25
2018-12-17T07:39:27.599Z,101800.81
2018-12-17T07:41:56.617Z,101799.98
2018-12-17T07:44:25.621Z,101800.08
2018-12-17T07:46:54.500Z,101801.83
2018-12-17T07:49:23.388Z,101801.39
2018-12-17T07:51:52.149Z,101807.10
2018-12-17T07:54:21.099Z,101806.14
2018-12-17T07:56:50.109Z,101802.63
2018-12-17T07:59:18.956Z,101803.92
2018-12-17T08:01:48.175Z,101810.09
2018-12-17T08:04:17.221Z,101816.63
2018-12-17T08:06:45.982Z,101823.52
2018-12-17T08:09:14.735Z,101825.19
2018-12-17T08:11:44.229Z,101838.34
2018-12-17T08:14:13.404Z,101833.91
2018-12-17T08:16:42.337Z,101838.19
2018-12-17T08:19:11.343Z,101841.70
2018-12-17T08:21:41.043Z,101838.09
2018-12-17T08:24:10.034Z,101841.73
2018-12-17T08:26:39.311Z,101845.16
2018-12-17T08:29:08.210Z,101840.73
2018-12-17T08:31:36.865Z,101847.33
2018-12-17T08:34:05.820Z,101848.09
2018-12-17T08:36:34.728Z,101854.68
2018-12-17T08:39:04.510Z,101852.45
2018-12-17T08:41:33.861Z,101847.05
2018-12-17T08:44:03.244Z,101842.63
2018-12-17T08:46:33.019Z,101850.66
2018-12-17T08:49:03.042Z,101858.08
2018-12-17T08:51:32.988Z,101866.46
2018-12-17T08:54:02.775Z,101862.53
2018-12-17T08:56:31.781Z,101863.66
2018-12-17T08:59:00.550Z,101857.26
2018-12-17T09:01:29.392Z,101864.41
2018-12-17T09:03:58.233Z,101856.15
2018-12-17T09:06:26.933Z,101861.13
2018-12-17T09:08:55.756Z,101861.16
2018-12-17T09:11:24.648Z,101869.30
2018-12-17T09:13:53.622Z,101865.81
2018-12-17T09:16:22.403Z,101876.16
2018-12-17T09:18:51.370Z,101881.41
2018-12-17T09:21:20.268Z,101877.39
2018-12-17T09:23:49.152Z,101877.30
2018-12-17T09:26:17.989Z,101872.52
2018-12-17T09:28:46.835Z,101871.90
2018-12-17T09:31:15.623Z,101881.20
2018-12-17T09:33:44.512Z,101884.24
2018-12-17T09:36:13.331Z,101889.20
2018-12-17T09:38:42.185Z,101891.66
2018-12-17T09:41:11.249Z,101888.17
2018-12-17T09:43:40.091Z,101893.92
2018-12-17T09:46:09.091Z,101890.43
2018-12-17T09:48:38.557Z,101892.06
2018-12-17T09:51:07.407Z,101902.88
2018-12-17T09:53:36.231Z,101896.64
2018-12-17T09:56:05.282Z,101898.31
2018-12-17T09:58:34.069Z,101891.34
2018-12-17T10:01:02.909Z,101889.07
2018-12-17T10:03:31.802Z,101894.56
2018-12-17T10:06:00.811Z,101887.89
2018-12-17T10:08:29.764Z,101883.12
2018-12-17T10:10:58.779Z,101886.27
2018-12-17T10:13:27.601Z,101884.78
2018-12-17T10:15:56.369Z,101884.00
2018-12-17T10:18:25.456Z,101881.87
2018-12-17T10:20:54.225Z,101876.79
2018-12-17T10:23:23.230Z,101885.05
2018-12-17T10:25:52.272Z,101882.41
2018-12-17T10:28:21.102Z,101884.16
2018-12-17T10:30:49.908Z,101884.81
2018-12-17T10:33:18.797Z,101888.09
2018-12-17T10:35:47.587Z,101883.08
2018-12-17T10:38:16.468Z,101879.12
2018-12-17T10:40:45.519Z,101875.03
2018-12-17T10:43:14.286Z,101871.38
2018-12-17T10:45:43.026Z,101872.19
2018-12-17T10:48:11.878Z,101868.45
2018-12-17T10:50:40.766Z,101875.77
2018-12-17T10:53:09.503Z,101878.00
2018-12-17T10:55:38.437Z,101877.13
2018-12-17T10:58:07.171Z,101881.34
2018-12-17T11:00:41.478Z,101879.84
2018-12-17T11:03:14.444Z,101882.59
2018-12-17T11:05:45.751Z,101884.56
2018-12-17T11:08:14.859Z,101878.92
2018-12-17T11:10:43.777Z,101875.25
2018-12-17T11:13:12.905Z,101867.48
2018-12-17T11:15:41.667Z,101865.20
2018-12-17T11:18:10.533Z,101871.33
2018-12-17T11:20:39.435Z,101869.20
2018-12-17T11:23:08.139Z,101869.09
2018-12-17T11:25:37.000Z,101862.45
2018-12-17T11:28:06.279Z,101864.28
2018-12-17T11:30:35.153Z,101860.22
2018-12-17T11:33:04.079Z,101862.97
2018-12-17T11:35:34.001Z,101863.00
2018-12-17T11:38:03.053Z,101862.67
2018-12-17T11:40:31.880Z,101863.08
2018-12-17T11:43:00.843Z,101862.56
2018-12-17T11:45:30.036Z,101856.40
2018-12-17T11:47:58.822Z,101860.03
2018-12-17T11:50:28.260Z,101857.68
2018-12-17T11:52:57.112Z,101857.16
2018-12-17T11:55:26.072Z,101855.52
2018-12-17T11:58:16.912Z,101854.64
2018-12-17T12:01:01.563Z,101852.40
2018-12-17T12:03:31.538Z,101851.28
2018-12-17T12:06:00.380Z,101852.20
2018-12-17T12:08:29.260Z,101851.88
2018-12-17T12:10:58.614Z,101852.25
2018-12-17T12:13:27.511Z,101858.73
2018-12-17T12:15:56.341Z,101852.72
2018-12-17T12:18:25.397Z,101857.28
2018-12-17T12:20:54.230Z,101849.47
2018-12-17T12:23:23.026Z,101854.05
2018-12-17T12:25:51.902Z,101848.69
2018-12-17T12:28:20.695Z,101840.83
2018-12-17T12:30:49.484Z,101847.36
2018-12-17T12:33:18.484Z,101866.47
2018-12-17T12:35:47.269Z,101869.59
2018-12-17T12:38:16.066Z,101876.88
2018-12-17T12:40:45.048Z,101872.77
2018-12-17T12:43:13.842Z,101876.64
2018-12-17T12:45:42.631Z,101877.56
2018-12-17T12:48:11.519Z,101878.80
2018-12-17T12:50:40.312Z,101880.45
2018-12-17T12:53:09.227Z,101877.96
2018-12-17T12:55:38.084Z,101884.13
2018-12-17T12:58:06.902Z,101889.91
2018-12-17T13:00:35.703Z,101890.63
2018-12-17T13:03:05.117Z,101896.03
2018-12-17T13:05:34.465Z,101889.38
2018-12-17T13:08:03.291Z,101891.37
2018-12-17T13:10:33.315Z,101891.90
2018-12-17T13:13:03.115Z,101884.89
2018-12-17T13:15:31.974Z,101892.74
2018-12-17T13:18:00.805Z,101886.84
2018-12-17T13:20:29.563Z,101894.50
2018-12-17T13:22:58.320Z,101893.55
2018-12-17T13:25:30.716Z,101894.19
2018-12-17T13:27:59.520Z,101892.06
2018-12-17T13:30:28.377Z,101901.80
2018-12-17T13:32:57.235Z,101897.86
2018-12-17T13:35:26.089Z,101906.59
2018-12-17T13:37:54.889Z,101896.34
2018-12-17T13:40:23.957Z,101900.55
2018-12-17T13:42:52.769Z,101902.55
2018-12-17T13:45:21.623Z,101897.16
2018-12-17T13:47:50.827Z,101895.11
2018-12-17T13:50:29.955Z,101891.14
2018-12-17T13:53:00.093Z,101892.34
2018-12-17T13:55:29.064Z,101900.34
2018-12-17T13:57:57.899Z,101900.65
2018-12-17T14:00:26.768Z,101908.72
2018-12-17T14:02:55.462Z,101910.89
2018-12-17T14:05:24.216Z,101906.48
2018-12-17T14:07:53.199Z,101913.53
2018-12-17T14:10:27.017Z,101912.72
2018-12-17T14:12:57.239Z,101903.77
2018-12-17T14:15:30.096Z,101915.91
2018-12-17T14:17:59.117Z,101928.57
2018-12-17T14:20:32.923Z,101924.94
2018-12-17T14:23:01.736Z,101927.91
2018-12-17T14:25:30.504Z,101932.94
2018-12-17T14:27:59.319Z,101936.70
2018-12-17T14:30:28.327Z,101936.97
2018-12-17T14:32:57.157Z,101932.42
2018-12-17T14:35:25.891Z,101931.03
2018-12-17T14:37:59.899Z,101922.30
2018-12-17T14:40:28.725Z,101926.16
2018-12-17T14:42:57.511Z,101926.66
2018-12-17T14:45:26.577Z,101928.24
2018-12-17T14:47:55.431Z,101930.26
2018-12-17T14:50:24.157Z,101930.22
2018-12-17T14:52:53.314Z,101937.34
2018-12-17T14:55:22.146Z,101939.95
2018-12-17T14:57:51.097Z,101941.20
2018-12-17T15:00:19.993Z,101940.12
2018-12-17T15:02:48.774Z,101942.14
2018-12-17T15:05:17.591Z,101948.37
2018-12-17T15:07:46.585Z,101951.02
2018-12-17T15:10:15.289Z,101951.63
2018-12-17T15:12:44.112Z,101953.97
2018-12-17T15:15:13.296Z,101962.34
2018-12-17T15:17:42.631Z,101959.44
2018-12-17T15:20:11.720Z,101971.00
2018-12-17T15:22:40.582Z,101970.89
2018-12-17T15:25:09.829Z,101969.54
2018-12-17T15:27:38.618Z,101970.83
2018-12-17T15:30:08.012Z,101976.73
2018-12-17T15:32:36.790Z,101976.28
2018-12-17T15:35:06.073Z,101975.03
2018-12-17T15:37:35.080Z,101972.80
2018-12-17T15:40:04.549Z,101987.37
2018-12-17T15:42:40.482Z,101988.69
2018-12-17T15:45:04.616Z,101987.44
2018-12-17T15:47:33.404Z,101985.71
2018-12-17T15:50:02.135Z,101990.66
2018-12-17T15:52:31.101Z,101988.80
2018-12-17T15:54:59.996Z,101991.33
2018-12-17T15:57:28.965Z,101991.33
2018-12-17T15:59:57.968Z,102004.51
2018-12-17T16:02:26.826Z,102007.15
2018-12-17T16:04:55.641Z,102005.97
2018-12-17T16:07:25.570Z,102005.12
2018-12-17T16:09:56.640Z,101995.09
2018-12-17T16:12:25.679Z,102004.34
2018-12-17T16:14:54.696Z,102002.52
2018-12-17T16:17:23.595Z,102001.66
2018-12-17T16:19:52.559Z,102002.81
2018-12-17T16:22:21.483Z,102003.77
2018-12-17T16:24:50.475Z,102008.00
2018-12-17T16:27:20.047Z,102008.00
2018-12-17T16:29:48.912Z,102003.19
2018-12-17T16:32:17.731Z,102007.66
2018-12-17T16:34:46.522Z,102002.31
2018-12-17T16:37:15.493Z,102008.84
2018-12-17T16:39:44.338Z,102014.74
2018-12-17T16:42:13.201Z,102023.17
2018-12-17T16:44:42.286Z,102020.47
2018-12-17T16:47:11.523Z,102022.59
2018-12-17T16:49:40.304Z,102015.11
2018-12-17T16:52:09.533Z,102023.92
2018-12-17T16:54:40.059Z,102028.66
2018-12-17T16:57:09.075Z,102033.44
2018-12-17T16:59:38.121Z,102037.51
2018-12-17T17:02:07.092Z,102041.78
2018-12-17T17:04:36.006Z,102040.05
2018-12-17T17:07:05.189Z,102041.23
2018-12-17T17:09:34.102Z,102045.20
2018-12-17T17:12:03.832Z,102051.88
2018-12-17T17:14:33.681Z,102051.19
2018-12-17T17:17:03.492Z,102043.64
2018-12-17T17:19:32.459Z,102040.02
2018-12-17T17:22:01.685Z,102049.73
2018-12-17T17:24:30.846Z,102051.13
2018-12-17T17:26:59.747Z,102051.03
2018-12-17T17:29:28.817Z,102058.89
2018-12-17T17:31:57.657Z,102067.66
2018-12-17T17:34:26.638Z,102060.52
2018-12-17T17:36:55.424Z,102062.20
2018-12-17T17:39:24.349Z,102069.73
2018-12-17T17:41:53.118Z,102069.73
2018-12-17T17:44:22.074Z,102072.44
2018-12-17T17:46:51.192Z,102071.63
2018-12-17T17:49:20.398Z,102082.61
2018-12-17T17:51:49.711Z,102078.23
2018-12-17T17:54:19.018Z,102085.52
2018-12-17T17:56:49.430Z,102081.02
2018-12-17T17:59:18.422Z,102085.93
2018-12-17T18:01:47.532Z,102083.73
2018-12-17T18:04:18.165Z,102084.88
2018-12-17T18:06:47.188Z,102072.58
2018-12-17T18:09:16.321Z,102074.75
2018-12-17T18:12:09.210Z,102078.53
2018-12-17T18:15:07.721Z,102076.58
2018-12-17T18:17:38.911Z,102077.05
2018-12-17T18:20:08.130Z,102083.22
2018-12-17T18:22:37.169Z,102080.23
2018-12-17T18:25:11.172Z,102079.77
2018-12-17T18:27:47.170Z,102084.67
2018-12-17T18:30:20.504Z,102092.95
2018-12-17T18:32:49.610Z,102088.06
2018-12-17T18:35:18.521Z,102094.37
2018-12-17T18:37:47.799Z,102095.95
2018-12-17T18:40:16.679Z,102093.25
2018-12-17T18:42:45.453Z,102097.96
2018-12-17T18:45:14.620Z,102102.37
2018-12-17T18:47:44.098Z,102099.19
2018-12-17T18:50:12.986Z,102103.09
2018-12-17T18:52:42.523Z,102088.98
2018-12-17T18:55:11.356Z,102094.95
2018-12-17T18:57:40.249Z,102095.05
2018-12-17T19:00:09.785Z,102096.47
2018-12-17T19:02:38.575Z,102098.55
2018-12-17T19:05:07.714Z,102093.55
2018-12-17T19:07:36.662Z,102099.76
2018-12-17T19:10:07.052Z,102097.86
2018-12-17T19:12:37.114Z,102100.13
2018-12-17T19:15:06.546Z,102111.59
2018-12-17T19:17:35.627Z,102107.89
2018-12-17T19:20:04.705Z,102103.22
2018-12-17T19:22:33.738Z,102106.56
2018-12-17T19:27:16.722Z,102106.70
2018-12-17T19:29:45.516Z,102114.78
2018-12-17T19:32:14.330Z,102117.59
2018-12-17T19:34:43.296Z,102117.94
2018-12-17T19:37:12.332Z,102118.78
2018-12-17T19:39:41.421Z,102121.73
2018-12-17T19:42:10.178Z,102118.50
2018-12-17T19:44:39.016Z,102114.57
2018-12-17T19:47:07.852Z,102119.79
2018-12-17T19:49:36.871Z,102118.47
2018-12-17T19:52:05.865Z,102131.69
2018-12-17T19:54:35.131Z,102121.96
2018-12-17T19:57:03.944Z,102129.45
2018-12-17T19:59:33.674Z,102129.86
2018-12-17T20:02:02.549Z,102129.34
2018-12-17T20:04:31.230Z,102124.80
2018-12-17T20:07:00.204Z,102129.72
2018-12-17T20:09:29.014Z,102131.81
2018-12-17T20:11:57.718Z,102136.26
2018-12-17T20:14:26.575Z,102145.48
2018-12-17T20:16:55.601Z,102145.78
2018-12-17T20:19:24.532Z,102137.07
2018-12-17T20:21:53.473Z,102137.95
2018-12-17T20:24:22.471Z,102146.33
2018-12-17T20:26:51.370Z,102150.56
2018-12-17T20:29:20.251Z,102151.87
2018-12-17T20:31:49.162Z,102150.89
2018-12-17T20:34:17.944Z,102148.72
2018-12-17T20:36:47.079Z,102144.60
2018-12-17T20:39:15.937Z,102149.48
2018-12-17T20:41:44.719Z,102146.81
2018-12-17T20:44:13.583Z,102149.42
2018-12-17T20:46:42.369Z,102156.19
2018-12-17T20:49:11.201Z,102157.03
2018-12-17T20:51:40.049Z,102156.70
2018-12-17T20:54:09.409Z,102154.38
2018-12-17T20:56:38.071Z,102160.41
2018-12-17T20:59:06.979Z,102161.91
2018-12-17T21:01:35.752Z,102158.39
2018-12-17T21:04:04.595Z,102166.66
2018-12-17T21:06:33.877Z,102164.45
2018-12-17T21:09:05.765Z,102159.05
2018-12-17T21:11:34.699Z,102154.63
2018-12-17T21:14:03.601Z,102150.23
2018-12-17T21:16:32.441Z,102151.98
2018-12-17T21:19:01.312Z,102149.34
2018-12-17T21:21:30.143Z,102152.31
2018-12-17T21:23:59.138Z,102156.88
2018-12-17T21:26:28.157Z,102159.37
2018-12-17T21:28:56.923Z,102158.83
2018-12-17T21:31:25.717Z,102157.02
2018-12-17T21:33:54.544Z,102152.64
2018-12-17T21:36:23.387Z,102154.77
2018-12-17T21:38:52.182Z,102149.55
2018-12-17T21:41:21.073Z,102149.23
2018-12-17T21:43:50.064Z,102144.14
2018-12-17T21:46:19.161Z,102138.81
2018-12-17T21:48:48.051Z,102133.07
2018-12-17T21:51:17.157Z,102143.11
2018-12-17T21:53:45.938Z,102141.30
2018-12-17T21:56:14.824Z,102142.63
2018-12-17T21:58:43.809Z,102143.91
2018-12-17T22:01:12.645Z,102150.36
2018-12-17T22:03:41.609Z,102145.19
2018-12-17T22:06:10.392Z,102152.17
2018-12-17T22:08:39.391Z,102149.04
2018-12-17T22:11:08.389Z,102150.37
2018-12-17T22:13:37.233Z,102150.37
2018-12-17T22:16:06.007Z,102156.10
2018-12-17T22:18:34.910Z,102161.84
2018-12-17T22:21:03.656Z,102164.09
2018-12-17T22:23:32.429Z,102164.89
2018-12-17T22:26:01.459Z,102168.34
2018-12-17T22:28:30.310Z,102178.05
2018-12-17T22:30:59.130Z,102172.31
2018-12-17T22:33:28.202Z,102175.53
2018-12-17T22:35:56.925Z,102176.69
2018-12-17T22:38:25.767Z,102180.27
2018-12-17T22:40:54.714Z,102181.02
2018-12-17T22:43:30.148Z,102176.09
2018-12-17T22:45:59.090Z,102180.95
2018-12-17T22:48:27.822Z,102188.89
2018-12-17T22:50:56.660Z,102180.86
2018-12-17T22:53:26.025Z,102182.11
2018-12-17T22:55:54.764Z,102181.98
2018-12-17T22:58:24.835Z,102178.89
2018-12-17T23:00:54.172Z,102183.58
2018-12-17T23:03:26.361Z,102185.75
2018-12-17T23:05:53.895Z,102184.46
2018-12-17T23:08:22.895Z,102184.86
2018-12-17T23:11:02.518Z,102188.80
2018-12-17T23:13:42.592Z,102179.52
2018-12-17T23:16:22.559Z,102182.97
2018-12-17T23:18:50.179Z,102178.99
2018-12-17T23:21:19.227Z,102181.95
2018-12-17T23:23:47.927Z,102179.83
2018-12-17T23:26:16.839Z,102166.84
2018-12-17T23:28:45.665Z,102170.43
2018-12-17T23:31:14.491Z,102168.97
2018-12-17T23:33:43.487Z,102167.55
2018-12-17T23:36:12.387Z,102174.84
2018-12-17T23:38:41.519Z,102173.13
2018-12-17T23:41:10.476Z,102170.78
2018-12-17T23:43:39.330Z,102178.24
2018-12-17T23:46:08.106Z,102175.95
2018-12-17T23:48:37.077Z,102181.25
2018-12-17T23:51:05.862Z,102181.77
2018-12-17T23:53:38.300Z,102187.83
2018-12-17T23:56:06.986Z,102185.97
2018-12-17T23:58:35.772Z,102188.19
